Lakeside, Arkansas
Current Conditions -  °F | °C
As of 10:53 PM on Wednesday 26 Nov 2014 (Local Time) from KHOT Reporting Station
Clear Clear  
Wind Chill: 43°   Ceiling: Unl
Heat Index: 46°   Visibility: 10mi
Dew Point: 27°   Wind: 6mph
Humidity: 47%   Direction: 320°NW
Pressure: 30.29"   Gusts: NA
Location:  34.5331°N, 93.0035°W
Report Text: KHOT 270453Z AUTO 32005KT 10SM CLR 08/M03 A3029 RMK AO2 PRESRR SLP257 T00781028
Loading
Personal Weather Stations






























Interactive Weather Map New forecast layout! Learn more

10-Day Weather Forecast

Advertisements
Track Severe Weather on mobile